createdAt,value
2023-03-17T00:00:42.763Z,57.10
2023-03-17T00:01:56.326Z,54.80
2023-03-17T00:02:59.872Z,51.10
2023-03-17T00:04:02.762Z,56.30
2023-03-17T00:05:24.270Z,60.50
2023-03-17T00:06:29.754Z,52.70
2023-03-17T00:07:32.875Z,53.90
2023-03-17T00:08:36.458Z,49.00
2023-03-17T00:09:39.237Z,54.20
2023-03-17T00:10:42.517Z,48.70
2023-03-17T00:11:46.519Z,53.90
2023-03-17T00:12:55.153Z,49.70
2023-03-17T00:13:58.121Z,52.10
2023-03-17T00:15:01.248Z,61.60
2023-03-17T00:16:07.578Z,58.20
2023-03-17T00:17:14.124Z,55.80
2023-03-17T00:18:19.611Z,57.90
2023-03-17T00:19:35.281Z,54.50
2023-03-17T00:20:38.171Z,58.30
2023-03-17T00:21:42.113Z,53.80
2023-03-17T00:22:45.441Z,55.80
2023-03-17T00:23:51.724Z,56.60
2023-03-17T00:24:54.788Z,54.80
2023-03-17T00:25:57.599Z,52.90
2023-03-17T00:27:00.745Z,56.10
2023-03-17T00:28:04.848Z,57.40
2023-03-17T00:29:08.584Z,57.90
2023-03-17T00:30:11.962Z,55.70
2023-03-17T00:31:21.616Z,58.00
2023-03-17T00:32:24.396Z,60.70
2023-03-17T00:33:29.879Z,56.20
2023-03-17T00:34:34.375Z,57.00
2023-03-17T00:35:38.357Z,58.50
2023-03-17T00:36:42.483Z,60.40
2023-03-17T00:37:46.833Z,54.40
2023-03-17T00:38:51.146Z,54.50
2023-03-17T00:39:54.083Z,55.00
2023-03-17T00:40:57.024Z,63.40
2023-03-17T00:41:59.787Z,56.20
2023-03-17T00:43:03.320Z,57.30
2023-03-17T00:44:06.523Z,54.70
2023-03-17T00:45:10.674Z,53.70
2023-03-17T00:46:16.621Z,55.80
2023-03-17T00:47:19.477Z,56.90
2023-03-17T00:48:22.262Z,57.20
2023-03-17T00:49:26.302Z,59.40
2023-03-17T00:50:29.568Z,59.50
2023-03-17T00:51:32.888Z,60.00
2023-03-17T00:52:35.619Z,60.90
2023-03-17T00:53:39.825Z,65.10
2023-03-17T00:54:42.646Z,62.70
2023-03-17T00:55:46.370Z,61.20
2023-03-17T00:56:51.000Z,61.00
2023-03-17T00:57:54.008Z,59.00
2023-03-17T00:58:56.879Z,54.80
2023-03-17T00:59:59.699Z,57.70
2023-03-17T01:01:03.357Z,54.30
2023-03-17T01:02:07.173Z,55.80
2023-03-17T01:03:13.508Z,53.50
2023-03-17T01:04:16.377Z,58.80
2023-03-17T01:05:20.007Z,56.00
2023-03-17T01:06:22.842Z,53.50
2023-03-17T01:07:27.099Z,54.40
2023-03-17T01:08:31.439Z,54.00
2023-03-17T01:09:34.959Z,55.70
2023-03-17T01:10:37.803Z,56.40
2023-03-17T01:11:40.539Z,55.40
2023-03-17T01:12:45.630Z,61.70
2023-03-17T01:13:48.756Z,55.70
2023-03-17T01:14:51.722Z,60.80
2023-03-17T01:15:56.520Z,56.60
2023-03-17T01:16:59.924Z,57.70
2023-03-17T01:18:03.104Z,54.20
2023-03-17T01:19:06.032Z,57.50
2023-03-17T01:20:16.879Z,60.50
2023-03-17T01:21:20.558Z,57.90
2023-03-17T01:22:23.542Z,56.40
2023-03-17T01:23:26.290Z,55.10
2023-03-17T01:24:29.159Z,57.50
2023-03-17T01:25:32.008Z,58.30
2023-03-17T01:26:35.062Z,60.10
2023-03-17T01:27:38.967Z,56.10
2023-03-17T01:28:42.097Z,59.60
2023-03-17T01:29:45.197Z,58.80
2023-03-17T01:30:48.067Z,58.10
2023-03-17T01:31:51.051Z,54.30
2023-03-17T01:32:56.254Z,57.40
2023-03-17T01:33:59.119Z,59.40
2023-03-17T01:35:01.874Z,51.90
2023-03-17T01:36:05.364Z,59.40
2023-03-17T01:37:08.330Z,56.50
2023-03-17T01:38:11.926Z,53.70
2023-03-17T01:39:15.293Z,59.20
2023-03-17T01:40:22.204Z,55.40
2023-03-17T01:41:25.145Z,53.90
2023-03-17T01:42:28.864Z,58.90
2023-03-17T01:43:31.590Z,60.20
2023-03-17T01:44:34.407Z,58.80
2023-03-17T01:46:15.100Z,58.30
2023-03-17T01:47:22.172Z,53.10
2023-03-17T01:48:26.511Z,62.90
2023-03-17T01:49:35.470Z,59.10
2023-03-17T01:50:38.301Z,58.20
2023-03-17T01:51:57.650Z,61.60
2023-03-17T01:53:01.064Z,58.30
2023-03-17T01:54:09.435Z,58.80
2023-03-17T01:55:17.296Z,56.60
2023-03-17T01:56:20.439Z,59.10
2023-03-17T01:57:33.387Z,60.00
2023-03-17T01:58:36.536Z,59.30
2023-03-17T01:59:45.919Z,55.00
2023-03-17T02:00:48.901Z,60.30
2023-03-17T02:01:58.216Z,55.50
2023-03-17T02:03:01.307Z,46.30
2023-03-17T02:04:06.487Z,53.10
2023-03-17T02:05:12.936Z,60.60
2023-03-17T02:06:16.389Z,58.90
2023-03-17T02:07:20.743Z,59.70
2023-03-17T02:08:23.600Z,55.50
2023-03-17T02:09:28.384Z,56.60
2023-03-17T02:10:32.371Z,57.60
2023-03-17T02:11:35.927Z,57.20
2023-03-17T02:12:41.891Z,55.50
2023-03-17T02:13:45.104Z,56.90
2023-03-17T02:14:50.078Z,60.20
2023-03-17T02:15:53.054Z,56.70
2023-03-17T02:16:56.309Z,58.40
2023-03-17T02:17:59.116Z,54.30
2023-03-17T02:19:02.156Z,61.20
2023-03-17T02:20:17.231Z,56.60
2023-03-17T02:21:42.190Z,62.00
2023-03-17T02:22:48.264Z,58.10
2023-03-17T02:23:51.507Z,57.00
2023-03-17T02:24:59.532Z,58.40
2023-03-17T02:26:04.145Z,55.30
2023-03-17T02:27:14.714Z,56.50
2023-03-17T02:28:23.167Z,50.30
2023-03-17T02:29:25.891Z,58.10
2023-03-17T02:30:29.332Z,54.70
2023-03-17T02:31:33.297Z,54.60
2023-03-17T02:32:36.916Z,55.70
2023-03-17T02:33:39.780Z,55.60
2023-03-17T02:34:43.953Z,55.70
2023-03-17T02:35:47.233Z,55.20
2023-03-17T02:36:52.139Z,54.20
2023-03-17T02:37:56.523Z,54.00
2023-03-17T02:38:59.416Z,55.40
2023-03-17T02:40:07.771Z,51.10
2023-03-17T02:41:10.687Z,53.30
2023-03-17T02:42:14.301Z,54.30
2023-03-17T02:43:17.101Z,54.90
2023-03-17T02:44:20.032Z,53.50
2023-03-17T02:45:23.462Z,52.60
2023-03-17T02:46:27.209Z,52.90
2023-03-17T02:47:30.341Z,54.60
2023-03-17T02:48:36.680Z,54.80
2023-03-17T02:49:41.315Z,53.70
2023-03-17T02:50:44.135Z,55.60
2023-03-17T02:51:47.567Z,56.40
2023-03-17T02:52:50.779Z,55.70
2023-03-17T02:53:53.726Z,54.60
2023-03-17T02:54:56.603Z,51.90
2023-03-17T02:55:59.466Z,52.30
2023-03-17T02:57:02.260Z,56.30
2023-03-17T02:58:05.406Z,50.40
2023-03-17T02:59:08.571Z,55.20
2023-03-17T03:00:13.448Z,57.00
2023-03-17T03:01:16.685Z,51.10
2023-03-17T03:02:19.572Z,56.50
2023-03-17T03:03:22.449Z,56.60
2023-03-17T03:04:26.311Z,58.10
2023-03-17T03:05:29.107Z,53.30
2023-03-17T03:06:31.860Z,59.10
2023-03-17T03:07:35.361Z,58.70
2023-03-17T03:08:38.174Z,56.90
2023-03-17T03:09:42.177Z,57.10
2023-03-17T03:10:45.105Z,57.00
2023-03-17T03:11:48.271Z,52.90
2023-03-17T03:12:51.101Z,55.00
2023-03-17T03:13:53.902Z,53.30
2023-03-17T03:14:56.711Z,55.50
2023-03-17T03:16:00.218Z,56.80
2023-03-17T03:17:04.559Z,53.90
2023-03-17T03:18:07.363Z,50.60
2023-03-17T03:19:10.203Z,57.20
2023-03-17T03:20:14.694Z,55.50
2023-03-17T03:21:17.544Z,50.50
2023-03-17T03:22:20.486Z,55.30
2023-03-17T03:23:23.236Z,54.70
2023-03-17T03:24:25.978Z,52.00
2023-03-17T03:25:28.739Z,51.70
2023-03-17T03:26:31.872Z,52.90
2023-03-17T03:27:35.110Z,50.70
2023-03-17T03:28:38.209Z,55.00
2023-03-17T03:29:41.797Z,52.30
2023-03-17T03:30:45.653Z,52.70
2023-03-17T03:31:48.709Z,52.40
2023-03-17T03:32:51.656Z,54.70
2023-03-17T03:33:54.678Z,51.80
2023-03-17T03:34:57.587Z,48.00
2023-03-17T03:36:00.433Z,52.70
2023-03-17T03:37:03.191Z,54.90
2023-03-17T03:38:07.261Z,51.10
2023-03-17T03:39:11.016Z,51.40
2023-03-17T03:40:14.983Z,52.70
2023-03-17T03:41:18.294Z,50.30
2023-03-17T03:42:21.044Z,52.70
2023-03-17T03:43:24.364Z,50.10
2023-03-17T03:44:27.246Z,51.50
2023-03-17T03:45:30.042Z,56.70
2023-03-17T03:46:32.854Z,52.10
2023-03-17T03:47:35.807Z,54.70
2023-03-17T03:48:38.594Z,54.90
2023-03-17T03:49:41.338Z,52.50
2023-03-17T03:50:44.432Z,53.60
2023-03-17T03:51:47.173Z,54.80
2023-03-17T03:52:50.324Z,52.60
2023-03-17T03:53:53.217Z,49.00
2023-03-17T03:54:56.333Z,54.50
2023-03-17T03:55:59.121Z,49.20
2023-03-17T03:57:01.911Z,54.60
2023-03-17T03:58:04.700Z,56.10
2023-03-17T03:59:07.612Z,53.20
2023-03-17T04:00:11.263Z,55.90
2023-03-17T04:01:17.758Z,51.80
2023-03-17T04:02:20.738Z,53.70
2023-03-17T04:03:23.557Z,57.10
2023-03-17T04:04:26.525Z,55.90
2023-03-17T04:05:29.373Z,50.30
2023-03-17T04:06:32.154Z,49.40
2023-03-17T04:07:36.411Z,57.00
2023-03-17T04:08:39.186Z,51.20
2023-03-17T04:09:42.552Z,62.10
2023-03-17T04:10:45.332Z,60.80
2023-03-17T04:11:48.249Z,61.20
2023-03-17T04:12:51.118Z,58.20
2023-03-17T04:13:53.936Z,56.60
2023-03-17T04:14:56.725Z,63.20
2023-03-17T04:15:59.457Z,58.60
2023-03-17T04:17:03.114Z,59.00
2023-03-17T04:18:05.857Z,55.50
2023-03-17T04:19:09.215Z,60.10
2023-03-17T04:20:14.382Z,57.00
2023-03-17T04:21:19.092Z,60.20
2023-03-17T04:22:22.145Z,55.60
2023-03-17T04:23:24.990Z,65.50
2023-03-17T04:24:28.867Z,62.40
2023-03-17T04:25:31.629Z,59.90
2023-03-17T04:26:34.453Z,65.20
2023-03-17T04:27:37.582Z,53.00
2023-03-17T04:28:40.745Z,54.90
2023-03-17T04:29:44.158Z,57.30
2023-03-17T04:30:47.094Z,57.80
2023-03-17T04:31:50.069Z,62.10
2023-03-17T04:32:52.886Z,59.70
2023-03-17T04:33:55.849Z,57.60
2023-03-17T04:34:58.750Z,59.30
2023-03-17T04:36:01.907Z,59.00
2023-03-17T04:37:04.792Z,57.40
2023-03-17T04:38:09.560Z,55.80
2023-03-17T04:39:12.698Z,58.30
2023-03-17T04:40:16.892Z,58.30
2023-03-17T04:41:21.375Z,52.90
2023-03-17T04:42:24.158Z,61.60
2023-03-17T04:43:27.197Z,56.60
2023-03-17T04:44:30.072Z,53.70
2023-03-17T04:45:33.327Z,53.50
2023-03-17T04:46:36.255Z,54.70
2023-03-17T04:47:39.465Z,55.50
2023-03-17T04:48:42.234Z,56.60
2023-03-17T04:49:44.992Z,58.40
2023-03-17T04:50:48.008Z,61.30
2023-03-17T04:51:50.843Z,56.70
2023-03-17T04:52:54.175Z,60.60
2023-03-17T04:53:57.233Z,63.10
2023-03-17T04:55:00.127Z,63.00
2023-03-17T04:56:03.051Z,62.30
2023-03-17T04:57:06.032Z,59.30
2023-03-17T04:58:10.354Z,62.30
2023-03-17T04:59:14.557Z,65.50
2023-03-17T05:00:18.329Z,66.40
2023-03-17T05:01:22.203Z,64.70
2023-03-17T05:02:25.056Z,72.10
2023-03-17T05:03:28.717Z,69.90
2023-03-17T05:04:32.456Z,68.50
2023-03-17T05:05:36.183Z,67.10
2023-03-17T05:06:40.678Z,76.40
2023-03-17T05:07:44.900Z,77.50
2023-03-17T05:08:47.758Z,78.30
2023-03-17T05:09:50.602Z,75.70
2023-03-17T05:10:53.375Z,68.00
2023-03-17T05:11:56.217Z,73.70
2023-03-17T05:12:59.161Z,72.00
2023-03-17T05:14:02.033Z,78.70
2023-03-17T05:15:05.464Z,74.70
2023-03-17T05:16:09.331Z,77.30
2023-03-17T05:17:12.175Z,75.40
2023-03-17T05:18:16.342Z,76.40
2023-03-17T05:19:19.120Z,79.50
2023-03-17T05:20:21.878Z,78.60
2023-03-17T05:21:24.937Z,78.40
2023-03-17T05:22:27.719Z,85.90
2023-03-17T05:23:30.575Z,82.70
2023-03-17T05:24:33.646Z,83.90
2023-03-17T05:25:36.973Z,79.40
2023-03-17T05:26:40.698Z,87.20
2023-03-17T05:27:43.492Z,87.50
2023-03-17T05:28:46.241Z,84.40
2023-03-17T05:29:48.999Z,86.90
2023-03-17T05:30:53.222Z,87.60
2023-03-17T05:31:56.033Z,85.00
2023-03-17T05:32:59.320Z,86.20
2023-03-17T05:34:03.282Z,86.00
2023-03-17T05:35:06.800Z,85.00
2023-03-17T05:36:09.637Z,88.70
2023-03-17T05:37:13.040Z,83.10
2023-03-17T05:38:16.131Z,84.30
2023-03-17T05:39:19.019Z,75.40
2023-03-17T05:40:23.966Z,83.80
2023-03-17T05:41:27.089Z,83.60
2023-03-17T05:42:29.948Z,78.40
2023-03-17T05:43:32.688Z,81.20
2023-03-17T05:44:35.703Z,77.90
2023-03-17T05:45:39.391Z,84.20
2023-03-17T05:46:42.202Z,77.80
2023-03-17T05:47:45.791Z,80.30
2023-03-17T05:48:48.973Z,77.60
2023-03-17T05:49:51.703Z,70.90
2023-03-17T05:50:54.499Z,70.90
2023-03-17T05:51:57.398Z,76.90
2023-03-17T05:53:01.098Z,71.70
2023-03-17T05:54:03.900Z,67.90
2023-03-17T05:55:07.888Z,75.10
2023-03-17T05:56:10.688Z,71.00
2023-03-17T05:57:13.440Z,65.20
2023-03-17T05:58:16.762Z,66.80
2023-03-17T05:59:19.591Z,61.60
2023-03-17T06:00:23.214Z,57.00
2023-03-17T06:01:26.197Z,62.30
2023-03-17T06:02:29.042Z,57.10
2023-03-17T06:03:31.921Z,54.40
2023-03-17T06:04:34.782Z,57.20
2023-03-17T06:05:38.049Z,56.20
2023-03-17T06:06:41.315Z,51.40
2023-03-17T06:07:54.044Z,51.80
2023-03-17T06:08:58.919Z,49.10
2023-03-17T06:10:02.344Z,57.70
2023-03-17T06:11:05.254Z,51.00
2023-03-17T06:12:08.587Z,54.00
2023-03-17T06:13:11.722Z,50.90
2023-03-17T06:14:14.661Z,50.40
2023-03-17T06:15:17.452Z,48.40
2023-03-17T06:16:20.842Z,47.60
2023-03-17T06:17:23.884Z,45.20
2023-03-17T06:18:27.128Z,47.30
2023-03-17T06:19:30.823Z,45.80
2023-03-17T06:20:34.735Z,48.90
2023-03-17T06:21:37.898Z,45.20
2023-03-17T06:22:55.197Z,45.40
2023-03-17T06:24:03.941Z,48.50
2023-03-17T06:25:07.060Z,50.60
2023-03-17T06:26:10.085Z,49.10
2023-03-17T06:27:14.387Z,48.60
2023-03-17T06:28:17.185Z,48.40
2023-03-17T06:29:19.938Z,72.20
2023-03-17T06:30:22.713Z,44.30
2023-03-17T06:31:25.595Z,43.30
2023-03-17T06:32:28.440Z,48.70
2023-03-17T06:33:31.330Z,45.90
2023-03-17T06:34:34.049Z,41.10
2023-03-17T06:35:37.392Z,41.00
2023-03-17T06:36:41.521Z,42.90
2023-03-17T06:37:44.365Z,41.90
2023-03-17T06:38:47.221Z,45.30
2023-03-17T06:39:49.984Z,41.30
2023-03-17T06:40:52.894Z,40.80
2023-03-17T06:41:55.657Z,43.50
2023-03-17T06:42:58.650Z,42.30
2023-03-17T06:44:01.507Z,37.20
2023-03-17T06:45:04.584Z,37.10
2023-03-17T06:46:07.526Z,35.70
2023-03-17T06:47:10.415Z,36.80
2023-03-17T06:48:13.404Z,34.60
2023-03-17T06:49:16.800Z,35.70
2023-03-17T06:50:20.072Z,32.20
2023-03-17T06:51:22.844Z,34.80
2023-03-17T06:52:27.668Z,34.20
2023-03-17T06:53:30.510Z,30.00
2023-03-17T06:54:33.519Z,34.70
2023-03-17T06:55:36.303Z,32.60
2023-03-17T06:56:39.094Z,28.00
2023-03-17T06:57:42.366Z,30.10
2023-03-17T06:58:45.584Z,32.80
2023-03-17T06:59:48.439Z,29.50
2023-03-17T07:00:54.144Z,25.90
2023-03-17T07:01:57.817Z,24.70
2023-03-17T07:03:00.723Z,20.60
2023-03-17T07:04:03.723Z,21.20
2023-03-17T07:05:08.110Z,23.10
2023-03-17T07:06:11.244Z,21.10
2023-03-17T07:07:14.011Z,21.80
2023-03-17T07:08:18.018Z,22.90
2023-03-17T07:09:20.946Z,23.50
2023-03-17T07:10:24.867Z,19.20
2023-03-17T07:11:29.274Z,19.30
2023-03-17T07:12:33.543Z,23.20
2023-03-17T07:13:37.371Z,21.80
2023-03-17T07:14:40.472Z,19.10
2023-03-17T07:15:45.374Z,23.70
2023-03-17T07:16:48.560Z,23.70
2023-03-17T07:17:51.910Z,18.30
2023-03-17T07:18:55.345Z,20.50
2023-03-17T07:19:58.068Z,22.20
2023-03-17T07:21:02.275Z,21.60
2023-03-17T07:22:05.088Z,21.00
2023-03-17T07:23:14.821Z,22.60
2023-03-17T07:24:17.862Z,22.60
2023-03-17T07:25:20.770Z,23.70
2023-03-17T07:26:23.477Z,21.70
2023-03-17T07:27:26.673Z,20.40
2023-03-17T07:28:29.871Z,19.60
2023-03-17T07:29:34.039Z,19.70
2023-03-17T07:30:37.539Z,19.80
2023-03-17T07:31:40.300Z,27.30
2023-03-17T07:32:43.920Z,22.60
2023-03-17T07:33:47.009Z,23.50
2023-03-17T07:34:50.048Z,25.80
2023-03-17T07:35:54.147Z,34.50
2023-03-17T07:36:56.949Z,21.00
2023-03-17T07:38:00.016Z,22.30
2023-03-17T07:39:03.862Z,21.80
2023-03-17T07:40:08.980Z,22.90
2023-03-17T07:41:11.927Z,40.00
2023-03-17T07:42:15.803Z,20.40
2023-03-17T07:43:19.953Z,22.90
2023-03-17T07:44:23.804Z,20.70
2023-03-17T07:45:27.964Z,19.60
2023-03-17T07:46:30.985Z,17.80
2023-03-17T07:47:33.825Z,18.40
2023-03-17T07:48:40.958Z,22.70
2023-03-17T07:49:43.917Z,19.10
2023-03-17T07:50:46.722Z,17.70
2023-03-17T07:51:49.545Z,17.00
2023-03-17T07:52:52.330Z,19.50
2023-03-17T07:54:03.673Z,17.70
2023-03-17T07:55:13.056Z,16.80
2023-03-17T07:56:16.541Z,15.60
2023-03-17T07:57:19.431Z,17.60
2023-03-17T07:58:22.227Z,19.90
2023-03-17T07:59:25.444Z,21.70
2023-03-17T08:00:29.187Z,13.90
2023-03-17T08:01:32.312Z,17.40
2023-03-17T08:02:36.369Z,13.60
2023-03-17T08:03:41.503Z,16.30
2023-03-17T08:04:45.308Z,15.10
2023-03-17T08:05:57.959Z,16.90
2023-03-17T08:07:01.859Z,15.60
2023-03-17T08:08:06.339Z,14.50
2023-03-17T08:09:11.163Z,15.60
2023-03-17T08:10:14.297Z,17.40
2023-03-17T08:11:17.712Z,15.70
2023-03-17T08:12:20.461Z,16.00
2023-03-17T08:13:23.259Z,14.90
2023-03-17T08:14:26.043Z,22.20
2023-03-17T08:15:31.065Z,14.20
2023-03-17T08:16:33.899Z,14.70
2023-03-17T08:17:37.294Z,14.20
2023-03-17T08:18:40.044Z,18.50
2023-03-17T08:19:43.125Z,16.60
2023-03-17T08:20:45.925Z,15.10
2023-03-17T08:21:49.444Z,11.90
2023-03-17T08:22:52.335Z,13.30
2023-03-17T08:23:55.389Z,15.00
2023-03-17T08:24:58.750Z,15.70
2023-03-17T08:26:03.345Z,12.50
2023-03-17T08:27:07.938Z,14.20
2023-03-17T08:28:10.764Z,14.10
2023-03-17T08:29:13.579Z,13.60
2023-03-17T08:30:16.525Z,13.20
2023-03-17T08:31:21.770Z,17.00
2023-03-17T08:32:24.641Z,13.10
2023-03-17T08:33:27.845Z,12.40
2023-03-17T08:34:30.924Z,11.30
2023-03-17T08:35:34.450Z,10.00
2023-03-17T08:36:38.086Z,9.60
2023-03-17T08:37:40.852Z,11.50
2023-03-17T08:38:44.946Z,12.50
2023-03-17T08:39:47.891Z,14.40
2023-03-17T08:40:51.247Z,11.30
2023-03-17T08:41:54.188Z,13.10
2023-03-17T08:42:57.603Z,9.90
2023-03-17T08:44:00.439Z,8.60
2023-03-17T08:45:04.533Z,9.30
2023-03-17T08:46:12.869Z,12.90
2023-03-17T08:47:16.245Z,8.60
2023-03-17T08:48:19.578Z,10.50
2023-03-17T08:49:23.085Z,9.50
2023-03-17T08:50:26.231Z,12.90
2023-03-17T08:51:34.768Z,12.70
2023-03-17T08:52:38.009Z,10.40
2023-03-17T08:53:41.475Z,9.40
2023-03-17T08:54:44.248Z,7.90
2023-03-17T08:55:47.149Z,9.80
2023-03-17T08:56:49.925Z,9.70
2023-03-17T08:57:53.006Z,8.10
2023-03-17T08:58:56.272Z,10.10
2023-03-17T08:59:59.112Z,10.70
2023-03-17T09:01:03.988Z,11.80
2023-03-17T09:02:07.628Z,9.50
2023-03-17T09:03:10.446Z,9.00
2023-03-17T09:04:13.277Z,10.10
2023-03-17T09:05:17.894Z,8.50
2023-03-17T09:06:22.203Z,11.80
2023-03-17T09:07:25.121Z,9.20
2023-03-17T09:08:28.214Z,9.60
2023-03-17T09:09:33.592Z,7.80
2023-03-17T09:10:37.058Z,8.40
2023-03-17T09:11:40.250Z,7.70
2023-03-17T09:12:43.013Z,12.10
2023-03-17T09:13:47.505Z,7.10
2023-03-17T09:14:50.534Z,8.80
2023-03-17T09:15:53.338Z,7.20
2023-03-17T09:16:57.012Z,7.30
2023-03-17T09:17:59.875Z,9.40
2023-03-17T09:19:03.790Z,7.30
2023-03-17T09:20:07.405Z,8.00
2023-03-17T09:21:12.050Z,5.70
2023-03-17T09:22:17.616Z,7.00
2023-03-17T09:23:20.870Z,7.60
2023-03-17T09:24:23.697Z,6.90
2023-03-17T09:25:27.320Z,10.10
2023-03-17T09:26:30.126Z,11.20
2023-03-17T09:27:32.894Z,9.50
2023-03-17T09:28:35.757Z,7.40
2023-03-17T09:29:38.880Z,10.10
2023-03-17T09:30:45.314Z,8.60
2023-03-17T09:31:48.545Z,7.50
2023-03-17T09:32:51.457Z,11.00
2023-03-17T09:33:54.791Z,13.50
2023-03-17T09:34:57.707Z,9.40
2023-03-17T09:36:00.751Z,9.40
2023-03-17T09:37:03.649Z,8.60
2023-03-17T09:38:07.675Z,8.60
2023-03-17T09:39:10.536Z,10.70
2023-03-17T09:40:18.191Z,7.80
2023-03-17T09:41:20.902Z,7.40
2023-03-17T09:42:45.512Z,8.30
2023-03-17T09:44:03.274Z,8.10
2023-03-17T09:45:09.646Z,8.80
2023-03-17T09:46:39.043Z,8.50
2023-03-17T09:48:12.221Z,8.40
2023-03-17T09:49:27.724Z,8.10
2023-03-17T09:50:51.826Z,8.20
2023-03-17T09:51:55.028Z,9.30
2023-03-17T09:53:02.068Z,8.40
2023-03-17T09:54:26.728Z,7.80
2023-03-17T09:55:32.660Z,8.80
2023-03-17T09:56:38.141Z,10.30
2023-03-17T09:57:41.354Z,8.20
2023-03-17T09:58:58.299Z,6.60
2023-03-17T10:00:07.652Z,5.80
2023-03-17T10:01:10.771Z,7.30
2023-03-17T10:02:30.114Z,8.70
2023-03-17T10:03:34.159Z,10.60
2023-03-17T10:04:37.250Z,9.80
2023-03-17T10:05:40.673Z,9.80
2023-03-17T10:06:46.853Z,10.50
2023-03-17T10:08:22.788Z,7.80
2023-03-17T10:09:33.985Z,8.50
2023-03-17T10:10:49.548Z,10.30
2023-03-17T10:12:04.516Z,10.00
2023-03-17T10:13:16.315Z,9.10
2023-03-17T10:14:25.428Z,11.80
2023-03-17T10:15:41.276Z,9.00
2023-03-17T10:17:09.389Z,8.40
2023-03-17T10:18:16.060Z,9.70
2023-03-17T10:19:42.500Z,10.00
2023-03-17T10:20:57.131Z,11.10
2023-03-17T10:22:05.619Z,9.50
2023-03-17T10:23:15.224Z,8.60
2023-03-17T10:24:19.215Z,9.80
2023-03-17T10:25:29.501Z,8.90
2023-03-17T10:26:39.850Z,9.20
2023-03-17T10:27:49.571Z,7.30
2023-03-17T10:28:53.512Z,7.40
2023-03-17T10:29:57.079Z,7.80
2023-03-17T10:31:13.517Z,10.20
2023-03-17T10:32:16.600Z,7.30
2023-03-17T10:33:19.461Z,11.10
2023-03-17T10:34:36.682Z,9.20
2023-03-17T10:35:41.344Z,10.40
2023-03-17T10:36:49.065Z,7.90
2023-03-17T10:37:58.926Z,8.20
2023-03-17T10:39:10.935Z,9.60
2023-03-17T10:40:26.959Z,6.80
2023-03-17T10:41:30.119Z,9.60
2023-03-17T10:42:33.144Z,8.70
2023-03-17T10:43:43.421Z,11.00
2023-03-17T10:44:50.823Z,7.10
2023-03-17T10:46:02.565Z,9.00
2023-03-17T10:47:05.678Z,8.80
2023-03-17T10:48:10.710Z,5.40
2023-03-17T10:49:18.091Z,7.10
2023-03-17T10:50:28.692Z,8.90
2023-03-17T10:51:35.496Z,6.80
2023-03-17T10:52:40.834Z,9.40
2023-03-17T10:53:43.867Z,7.70
2023-03-17T10:54:51.446Z,6.80
2023-03-17T10:55:59.072Z,7.10
2023-03-17T10:57:06.760Z,6.70
2023-03-17T10:58:17.369Z,7.80
2023-03-17T10:59:28.325Z,6.60
2023-03-17T11:00:35.543Z,7.50
2023-03-17T11:01:41.481Z,6.90
2023-03-17T11:02:51.058Z,8.00
2023-03-17T11:03:54.325Z,8.00
2023-03-17T11:05:05.509Z,10.20
2023-03-17T11:06:11.676Z,9.20
2023-03-17T11:07:27.179Z,7.50
2023-03-17T11:08:55.867Z,7.60
2023-03-17T11:10:03.259Z,6.20
2023-03-17T11:11:10.271Z,6.30
2023-03-17T11:12:29.969Z,7.60
2023-03-17T11:13:33.019Z,12.10
2023-03-17T11:14:36.470Z,8.10
2023-03-17T11:15:48.535Z,10.00
2023-03-17T11:17:04.877Z,7.90
2023-03-17T11:18:16.960Z,7.20
2023-03-17T11:19:27.089Z,8.50
2023-03-17T11:20:52.556Z,11.50
2023-03-17T11:22:17.118Z,10.50
2023-03-17T11:23:41.382Z,10.50
2023-03-17T11:25:01.094Z,18.70
2023-03-17T11:26:24.318Z,20.40
2023-03-17T11:27:34.981Z,9.70
2023-03-17T11:28:42.576Z,5.70
2023-03-17T11:30:00.887Z,10.40
2023-03-17T11:31:15.338Z,7.40
2023-03-17T11:32:43.770Z,8.90
2023-03-17T11:34:00.057Z,6.60
2023-03-17T11:35:30.992Z,7.90
2023-03-17T11:37:07.016Z,10.10
2023-03-17T11:38:40.153Z,9.00
2023-03-17T11:40:03.078Z,7.90
2023-03-17T11:41:27.323Z,6.60
2023-03-17T11:43:18.214Z,9.70
2023-03-17T11:44:47.460Z,8.70
2023-03-17T11:45:57.042Z,8.30
2023-03-17T11:47:15.834Z,9.00
2023-03-17T11:48:18.533Z,10.60
2023-03-17T11:49:38.701Z,10.90
2023-03-17T11:50:52.101Z,11.90
2023-03-17T11:52:22.121Z,8.00
2023-03-17T11:53:27.921Z,13.60
2023-03-17T11:54:50.683Z,9.00
2023-03-17T11:56:06.649Z,8.00
2023-03-17T11:57:17.579Z,8.70
2023-03-17T11:58:46.614Z,14.10
2023-03-17T11:59:57.717Z,13.90
2023-03-17T12:01:02.264Z,8.20
2023-03-17T12:02:25.448Z,15.10
2023-03-17T12:03:43.726Z,13.00
2023-03-17T12:05:05.177Z,14.10
2023-03-17T12:06:18.009Z,8.10
2023-03-17T12:07:26.946Z,12.50
2023-03-17T12:08:52.584Z,7.30
2023-03-17T12:10:17.157Z,6.90
2023-03-17T12:11:28.924Z,8.80
2023-03-17T12:12:38.191Z,10.40
2023-03-17T12:13:46.674Z,8.80
2023-03-17T12:14:54.036Z,6.90
2023-03-17T12:16:04.323Z,10.30
2023-03-17T12:17:25.844Z,8.20
2023-03-17T12:18:38.416Z,12.90
2023-03-17T12:20:01.222Z,7.00
2023-03-17T12:21:17.566Z,7.30
2023-03-17T12:22:36.480Z,8.20
2023-03-17T12:23:52.423Z,7.30
2023-03-17T12:25:12.728Z,8.40
2023-03-17T12:26:20.243Z,8.00
2023-03-17T12:27:34.680Z,8.60
2023-03-17T12:28:46.630Z,6.90
2023-03-17T12:29:57.213Z,7.60
2023-03-17T12:31:11.045Z,10.50
2023-03-17T12:32:40.437Z,8.20
2023-03-17T12:34:32.155Z,7.50
2023-03-17T12:35:39.048Z,9.70
2023-03-17T12:36:42.759Z,6.60
2023-03-17T12:37:46.668Z,6.90
2023-03-17T12:39:05.603Z,11.50
2023-03-17T12:40:18.250Z,12.10
2023-03-17T12:41:29.951Z,7.80
2023-03-17T12:42:52.391Z,8.40
2023-03-17T12:44:02.867Z,10.10
2023-03-17T12:45:23.902Z,9.40
2023-03-17T12:46:29.234Z,8.60
2023-03-17T12:47:38.433Z,5.70
2023-03-17T12:49:10.914Z,6.20
2023-03-17T12:51:06.057Z,6.90
2023-03-17T12:52:17.001Z,9.30
2023-03-17T12:53:32.496Z,12.70
2023-03-17T12:54:38.535Z,8.60
2023-03-17T12:55:47.199Z,9.30
2023-03-17T12:56:50.544Z,7.70
2023-03-17T12:58:16.135Z,14.20
2023-03-17T12:59:24.416Z,17.40
2023-03-17T13:00:34.312Z,13.50
2023-03-17T13:01:38.618Z,7.70
2023-03-17T13:02:49.042Z,10.30
2023-03-17T13:03:57.729Z,10.00
2023-03-17T13:05:01.811Z,6.40
2023-03-17T13:06:16.538Z,10.30
2023-03-17T13:07:27.271Z,12.90
2023-03-17T13:08:52.085Z,6.70
2023-03-17T13:09:54.863Z,9.90
2023-03-17T13:11:18.692Z,8.10
2023-03-17T13:13:04.115Z,8.80
2023-03-17T13:14:47.368Z,13.60
2023-03-17T13:15:57.068Z,7.90
2023-03-17T13:18:27.519Z,10.90
2023-03-17T13:19:55.943Z,10.20
2023-03-17T13:21:01.766Z,9.60
2023-03-17T13:22:07.013Z,10.10
2023-03-17T13:23:10.343Z,9.60
2023-03-17T13:24:15.804Z,11.40
2023-03-17T13:25:42.994Z,11.50
2023-03-17T13:26:58.214Z,13.60
2023-03-17T13:28:12.959Z,10.20
2023-03-17T13:29:38.454Z,10.40
2023-03-17T13:30:57.329Z,7.60
2023-03-17T13:32:15.397Z,10.00
2023-03-17T13:33:24.118Z,10.40
2023-03-17T13:34:28.372Z,9.70
2023-03-17T13:35:46.171Z,7.60
2023-03-17T13:37:13.910Z,9.60
2023-03-17T13:38:41.908Z,8.10
2023-03-17T13:40:11.015Z,8.70
2023-03-17T13:41:55.794Z,8.70
2023-03-17T13:43:13.155Z,12.70
2023-03-17T13:44:36.768Z,11.10
2023-03-17T13:45:41.427Z,10.20
2023-03-17T13:46:49.168Z,12.70
2023-03-17T13:47:52.612Z,10.30
2023-03-17T13:48:56.607Z,9.90
2023-03-17T13:50:08.788Z,10.10
2023-03-17T13:51:18.210Z,10.00
2023-03-17T13:52:38.169Z,9.80
2023-03-17T13:53:57.618Z,12.10
2023-03-17T13:55:18.975Z,10.70
2023-03-17T13:56:49.058Z,11.00
2023-03-17T13:58:16.009Z,11.50
2023-03-17T13:59:20.991Z,9.20
2023-03-17T14:00:27.910Z,16.00
2023-03-17T14:01:46.354Z,15.40
2023-03-17T14:02:51.754Z,10.10
2023-03-17T14:03:56.561Z,15.00
2023-03-17T14:05:03.148Z,11.20
2023-03-17T14:06:08.985Z,11.60
2023-03-17T14:07:18.865Z,8.90
2023-03-17T14:08:29.806Z,11.30
2023-03-17T14:09:43.107Z,9.20
2023-03-17T14:10:54.039Z,18.10
2023-03-17T14:12:00.044Z,11.70
2023-03-17T14:13:25.531Z,10.20
2023-03-17T14:14:38.437Z,11.00
2023-03-17T14:15:48.211Z,10.10
2023-03-17T14:18:03.830Z,9.90
2023-03-17T14:20:32.738Z,10.50
2023-03-17T14:21:36.584Z,11.10
2023-03-17T14:22:43.302Z,14.20
2023-03-17T14:24:14.770Z,12.00
2023-03-17T14:25:24.120Z,12.90
2023-03-17T14:26:29.794Z,12.10
2023-03-17T14:27:34.366Z,10.40
2023-03-17T14:28:37.818Z,11.90
2023-03-17T14:29:41.290Z,11.90
2023-03-17T14:30:55.640Z,11.50
2023-03-17T14:32:13.280Z,13.90
2023-03-17T14:33:41.076Z,21.20